Hebe, Pennsylvania
Current Conditions -  °F | °C
As of 12:06 AM on Tuesday 23 Dec 2014 (Local Time) from KSEG Reporting Station
Haze Haze  
Wind Chill: 33°   Ceiling: 600
Heat Index: 33°   Visibility: 3mi
Dew Point: 31°   Wind: 0mph
Humidity: 92%   Direction: NA
Pressure: 30.13"   Gusts: NA
Location:  40.6872°N, 76.7831°W
Report Text: KSEG 230506Z AUTO 00000KT 3SM BR BKN006 OVC012 01/M01 A3013 RMK AO2 RAE02 P0000 T00061006
Loading
Personal Weather Stations






























Interactive Weather Map New forecast layout! Learn more

10-Day Weather Forecast

Advertisements
Track Severe Weather on mobile